Time;durP1;ratioP1;P1;durP2;ratioP2;P2;SDS_P1;SDS_P2;PMS_P1;PMS_P2;Temp;Humidity;BMP_temperature;BMP_pressure;BME280_temperature;BME280_humidity;BME280_pressure;Samples;Min_cycle;Max_cycle;Signal;HPM_P1;HPM_P2
2022/10/07 00:01:33;;;;;;;7.37;3.60;;;11.90;99.90;;;;;;5007724;28;20291;-70
2022/10/07 00:03:58;;;;;;;8.87;3.50;;;11.70;99.90;;;;;;5024946;28;20310;-71
2022/10/07 00:06:24;;;;;;;6.97;3.83;;;11.80;99.90;;;;;;5030254;28;20176;-70
2022/10/07 00:08:52;;;;;;;9.93;3.90;;;11.80;99.90;;;;;;5025373;28;20242;-71
2022/10/07 00:11:20;;;;;;;11.30;3.67;;;11.80;99.90;;;;;;5023580;28;20216;-70
2022/10/07 00:13:47;;;;;;;7.77;3.37;;;11.80;99.90;;;;;;5027096;28;20752;-70
2022/10/07 00:16:17;;;;;;;7.83;3.60;;;11.80;99.90;;;;;;5026748;28;20224;-70
2022/10/07 00:18:43;;;;;;;7.50;3.73;;;11.70;99.90;;;;;;5024384;28;20560;-70
2022/10/07 00:21:12;;;;;;;8.43;3.67;;;11.70;99.90;;;;;;5022992;28;20308;-70
2022/10/07 00:23:40;;;;;;;5.27;3.00;;;11.80;99.90;;;;;;5011582;28;20216;-70
2022/10/07 00:26:08;;;;;;;10.73;3.63;;;11.70;99.90;;;;;;5023649;28;20239;-71
2022/10/07 00:28:35;;;;;;;6.80;3.57;;;11.70;99.90;;;;;;5021451;28;20208;-70
2022/10/07 00:31:03;;;;;;;6.57;3.73;;;11.60;99.90;;;;;;5026923;28;20224;-70
2022/10/07 00:33:35;;;;;;;7.87;3.70;;;11.60;99.90;;;;;;5010744;28;20176;-70
2022/10/07 00:36:06;;;;;;;8.97;3.80;;;11.60;99.90;;;;;;4986524;28;20216;-70
2022/10/07 00:38:32;;;;;;;8.97;3.53;;;11.50;99.90;;;;;;5025717;28;20196;-70
2022/10/07 00:40:57;;;;;;;8.63;3.67;;;11.50;99.90;;;;;;5026859;28;20706;-70
2022/10/07 00:43:28;;;;;;;4.27;2.90;;;11.50;99.90;;;;;;5008733;28;20200;-70
2022/10/07 00:45:57;;;;;;;6.40;3.50;;;11.40;99.90;;;;;;5002758;28;20592;-71
2022/10/07 00:48:27;;;;;;;8.17;3.47;;;11.40;99.90;;;;;;5030240;28;20247;-70
2022/10/07 00:50:56;;;;;;;7.40;3.00;;;11.40;99.90;;;;;;5024911;28;20216;-70
2022/10/07 00:53:24;;;;;;;10.37;4.30;;;11.30;99.90;;;;;;5007276;28;20364;-71
2022/10/07 00:55:50;;;;;;;6.13;3.37;;;11.40;99.90;;;;;;5022907;28;20266;-71
2022/10/07 00:58:18;;;;;;;5.67;3.60;;;11.40;99.90;;;;;;5026922;28;20339;-70
2022/10/07 01:00:43;;;;;;;6.60;3.50;;;11.30;99.90;;;;;;5021549;28;20274;-70
2022/10/07 01:03:09;;;;;;;9.93;3.73;;;11.30;99.90;;;;;;5022764;28;20216;-71
2022/10/07 01:05:35;;;;;;;7.37;3.00;;;11.40;99.90;;;;;;5029388;28;20219;-71
2022/10/07 01:08:01;;;;;;;6.13;4.00;;;11.40;99.90;;;;;;5007565;28;20212;-70
2022/10/07 01:10:34;;;;;;;6.77;3.20;;;11.40;99.90;;;;;;5024331;28;20215;-71
2022/10/07 01:13:20;;;;;;;5.30;2.93;;;11.40;99.90;;;;;;5026081;28;20622;-70
2022/10/07 01:16:10;;;;;;;10.60;3.43;;;11.30;99.90;;;;;;5021428;28;20183;-70
2022/10/07 01:18:51;;;;;;;9.77;3.10;;;11.10;99.90;;;;;;5020678;28;20168;-71
2022/10/07 01:21:32;;;;;;;8.57;3.20;;;11.10;99.90;;;;;;5022981;28;20216;-70
2022/10/07 01:24:03;;;;;;;5.67;3.07;;;11.00;99.90;;;;;;5005867;28;20219;-71
2022/10/07 01:27:02;;;;;;;5.03;3.13;;;11.00;99.90;;;;;;5007650;28;20686;-71
2022/10/07 01:29:39;;;;;;;6.37;2.97;;;11.00;99.90;;;;;;5017714;28;20210;-70
2022/10/07 01:32:14;;;;;;;8.27;3.33;;;11.00;99.90;;;;;;5027301;28;20869;-70
2022/10/07 01:34:41;;;;;;;9.13;3.40;;;11.00;99.90;;;;;;5020509;28;20286;-71
2022/10/07 01:37:12;;;;;;;12.40;4.23;;;10.90;99.90;;;;;;5022272;28;20217;-71
2022/10/07 01:39:52;;;;;;;7.00;3.03;;;10.90;99.90;;;;;;5009570;28;20210;-70
2022/10/07 01:42:19;;;;;;;10.70;3.70;;;10.90;99.90;;;;;;5019789;28;20266;-71
2022/10/07 01:44:48;;;;;;;6.27;3.20;;;10.90;99.90;;;;;;5021890;28;20294;-70
2022/10/07 01:47:14;;;;;;;5.43;2.73;;;10.90;99.90;;;;;;5025276;28;20621;-70
2022/10/07 01:49:40;;;;;;;7.97;3.40;;;10.90;99.90;;;;;;5027136;28;20212;-71
2022/10/07 01:52:36;;;;;;;7.20;3.10;;;11.00;99.90;;;;;;5023623;28;20213;-71
2022/10/07 01:55:07;;;;;;;10.77;3.57;;;10.80;99.90;;;;;;5018492;28;20567;-70
2022/10/07 01:57:42;;;;;;;5.70;3.30;;;10.90;99.90;;;;;;5028800;28;20165;-71
2022/10/07 02:00:11;;;;;;;6.40;2.97;;;11.00;99.90;;;;;;5019025;28;20212;-70
2022/10/07 02:03:00;;;;;;;5.13;2.93;;;11.00;99.90;;;;;;5004250;28;20877;-71
2022/10/07 02:05:47;;;;;;;4.87;2.90;;;11.00;99.90;;;;;;5022219;28;20219;-70
2022/10/07 02:08:34;;;;;;;7.93;3.03;;;11.00;99.90;;;;;;5012111;28;20218;-71
2022/10/07 02:11:17;;;;;;;7.17;3.10;;;10.90;99.90;;;;;;5000902;28;20248;-70
2022/10/07 02:13:59;;;;;;;7.87;3.03;;;10.80;99.90;;;;;;5007884;28;20216;-71
2022/10/07 02:16:31;;;;;;;8.63;3.10;;;10.80;99.90;;;;;;5025394;28;20266;-71
2022/10/07 02:19:00;;;;;;;4.60;2.70;;;10.70;99.90;;;;;;5021166;28;20181;-70
2022/10/07 02:21:30;;;;;;;7.67;3.20;;;10.60;99.90;;;;;;5022820;28;20671;-71
2022/10/07 02:23:58;;;;;;;4.57;3.17;;;10.70;99.90;;;;;;5026047;28;20283;-70
2022/10/07 02:26:26;;;;;;;8.80;3.47;;;10.60;99.90;;;;;;5026086;28;20274;-71
2022/10/07 02:28:54;;;;;;;7.87;3.03;;;10.60;99.90;;;;;;5000257;28;20212;-70
2022/10/07 02:31:23;;;;;;;9.07;2.73;;;10.60;99.90;;;;;;5001137;28;20710;-70
2022/10/07 02:36:44;;;;;;;5.27;2.57;;;10.60;99.90;;;;;;5016446;28;20217;-72
2022/10/07 02:39:11;;;;;;;5.70;2.93;;;10.60;99.90;;;;;;5009067;28;20208;-69
2022/10/07 02:41:43;;;;;;;6.67;3.27;;;10.50;99.90;;;;;;5010150;28;20228;-70
2022/10/07 02:44:24;;;;;;;7.17;3.37;;;10.60;99.90;;;;;;5013910;28;20268;-71
2022/10/07 02:47:10;;;;;;;5.77;3.10;;;10.60;99.90;;;;;;4995538;28;20259;-71
2022/10/07 02:49:40;;;;;;;5.57;2.67;;;10.50;99.90;;;;;;5010020;28;20193;-71
2022/10/07 02:52:18;;;;;;;7.27;3.00;;;10.50;99.90;;;;;;5007013;28;20261;-70
2022/10/07 02:54:59;;;;;;;13.43;3.63;;;10.40;99.90;;;;;;4992751;28;20256;-70
2022/10/07 02:57:29;;;;;;;6.57;2.97;;;10.30;99.90;;;;;;5006194;28;20248;-70
2022/10/07 02:59:59;;;;;;;3.90;2.83;;;10.30;99.90;;;;;;4992826;28;20309;-68
2022/10/07 03:02:41;;;;;;;9.63;2.77;;;10.30;99.90;;;;;;4986301;28;20209;-72
2022/10/07 03:05:08;;;;;;;5.03;3.23;;;10.30;99.90;;;;;;5007040;28;20229;-72
2022/10/07 03:07:34;;;;;;;7.63;2.93;;;10.30;99.90;;;;;;5009989;28;20300;-72
2022/10/07 03:10:00;;;;;;;5.70;3.30;;;10.30;99.90;;;;;;5015018;28;20205;-72
2022/10/07 03:12:27;;;;;;;7.83;3.30;;;10.30;99.90;;;;;;5006235;28;20799;-72
2022/10/07 03:14:53;;;;;;;7.40;3.20;;;10.40;99.90;;;;;;5011097;28;20224;-72
2022/10/07 03:17:19;;;;;;;8.83;3.70;;;10.30;99.90;;;;;;5008779;28;20205;-73
2022/10/07 03:19:44;;;;;;;8.47;3.37;;;10.20;99.90;;;;;;5003883;28;20292;-72
2022/10/07 03:22:11;;;;;;;7.03;3.40;;;10.20;99.90;;;;;;5007131;28;20852;-72
2022/10/07 03:24:36;;;;;;;7.13;2.63;;;10.30;99.90;;;;;;5009981;28;20211;-72
2022/10/07 03:27:06;;;;;;;8.53;3.60;;;10.20;99.90;;;;;;4987452;28;20214;-69
2022/10/07 03:29:33;;;;;;;7.43;3.43;;;10.30;99.90;;;;;;5005330;28;20197;-73
2022/10/07 03:31:59;;;;;;;6.00;3.23;;;10.20;99.90;;;;;;4993394;28;20217;-70
2022/10/07 03:34:26;;;;;;;5.17;2.77;;;10.20;99.90;;;;;;4990857;28;20304;-70
2022/10/07 03:36:53;;;;;;;6.97;3.60;;;10.20;99.90;;;;;;5003112;28;20921;-71
2022/10/07 03:39:18;;;;;;;7.63;3.70;;;10.20;99.90;;;;;;5008233;28;20227;-70
2022/10/07 03:41:46;;;;;;;7.03;3.27;;;10.20;99.90;;;;;;5009272;28;20212;-69
2022/10/07 03:44:11;;;;;;;8.50;3.33;;;10.20;99.90;;;;;;4993668;28;20758;-70
2022/10/07 03:46:37;;;;;;;8.50;3.33;;;10.10;99.90;;;;;;4994729;28;20292;-70
2022/10/07 03:49:02;;;;;;;10.07;3.50;;;10.10;99.90;;;;;;5009268;28;20641;-70
2022/10/07 03:51:28;;;;;;;8.67;3.60;;;10.20;99.90;;;;;;5008327;28;20177;-70
2022/10/07 03:53:56;;;;;;;6.40;3.50;;;10.10;99.90;;;;;;4991400;28;20205;-70
2022/10/07 03:56:22;;;;;;;7.40;3.60;;;10.10;99.90;;;;;;5004226;28;20844;-71
2022/10/07 03:58:47;;;;;;;10.17;4.00;;;10.00;99.90;;;;;;5008205;28;20299;-71
2022/10/07 04:01:14;;;;;;;8.27;3.80;;;10.00;99.90;;;;;;5005865;28;20729;-70
2022/10/07 04:03:40;;;;;;;9.63;3.93;;;10.20;99.90;;;;;;5002557;28;20169;-71
2022/10/07 04:06:06;;;;;;;9.43;3.87;;;10.20;99.90;;;;;;5008698;28;20225;-71
2022/10/07 04:08:32;;;;;;;8.30;3.80;;;10.20;99.90;;;;;;5008107;28;20201;-71
2022/10/07 04:10:59;;;;;;;11.60;3.73;;;10.10;99.90;;;;;;4989440;28;20931;-70
2022/10/07 04:13:25;;;;;;;9.87;3.83;;;10.00;99.90;;;;;;5007621;28;20280;-72
2022/10/07 04:15:50;;;;;;;8.23;3.50;;;10.10;99.90;;;;;;4992612;28;20763;-69
2022/10/07 04:18:16;;;;;;;10.13;3.97;;;10.00;99.90;;;;;;4989239;28;20181;-71
2022/10/07 04:20:42;;;;;;;9.20;4.00;;;10.00;99.90;;;;;;5001743;28;20244;-71
2022/10/07 04:23:07;;;;;;;6.40;3.87;;;10.00;99.90;;;;;;5008425;28;20210;-71
2022/10/07 04:25:33;;;;;;;6.47;3.83;;;9.90;99.90;;;;;;5007870;28;20219;-72
2022/10/07 04:28:01;;;;;;;12.43;4.10;;;9.90;99.90;;;;;;5002530;28;20214;-71
2022/10/07 04:30:31;;;;;;;6.53;3.77;;;10.00;99.90;;;;;;5007449;28;20212;-69
2022/10/07 04:32:57;;;;;;;8.13;3.67;;;10.00;99.90;;;;;;5000718;28;20240;-70
2022/10/07 04:35:23;;;;;;;11.80;3.87;;;10.00;99.90;;;;;;5006263;28;20737;-70
2022/10/07 04:37:52;;;;;;;6.63;3.67;;;10.00;99.90;;;;;;5000955;28;20205;-71
2022/10/07 04:40:19;;;;;;;7.73;3.97;;;9.90;99.90;;;;;;4999651;28;20232;-70
2022/10/07 04:45:32;;;;;;;10.73;4.07;;;9.80;99.90;;;;;;5004196;28;20270;-71
2022/10/07 04:47:59;;;;;;;10.77;4.33;;;9.70;99.90;;;;;;5003610;28;20212;-71
2022/10/07 04:50:24;;;;;;;8.73;3.77;;;9.70;99.90;;;;;;5007795;28;20742;-70
2022/10/07 04:52:50;;;;;;;7.73;4.00;;;9.70;99.90;;;;;;5003335;28;20205;-70
2022/10/07 04:55:16;;;;;;;8.07;3.60;;;9.60;99.90;;;;;;5003443;28;20205;-71
2022/10/07 04:57:41;;;;;;;7.60;4.43;;;9.60;99.90;;;;;;5007068;28;20363;-72
2022/10/07 05:00:08;;;;;;;10.03;4.13;;;9.50;99.90;;;;;;5012339;28;20173;-71
2022/10/07 05:02:34;;;;;;;10.20;4.57;;;9.50;99.90;;;;;;5004654;28;20208;-72
2022/10/07 05:05:00;;;;;;;7.57;4.30;;;9.50;99.90;;;;;;5008510;28;20269;-72
2022/10/07 05:07:26;;;;;;;8.23;3.57;;;9.50;99.90;;;;;;5015000;28;20196;-71
2022/10/07 05:09:52;;;;;;;10.07;4.07;;;9.50;99.90;;;;;;5005881;28;20182;-70
2022/10/07 05:12:18;;;;;;;9.40;4.10;;;9.50;99.90;;;;;;5003545;28;20173;-71
2022/10/07 05:14:44;;;;;;;11.53;3.63;;;9.50;99.90;;;;;;5015541;28;20217;-72
2022/10/07 05:17:11;;;;;;;10.73;4.30;;;9.50;99.90;;;;;;5033754;28;20274;-70
2022/10/07 05:19:37;;;;;;;8.50;4.47;;;9.50;99.90;;;;;;5019000;28;20211;-72
2022/10/07 05:22:03;;;;;;;9.43;4.57;;;9.50;99.90;;;;;;4992805;28;20292;-71
2022/10/07 05:24:28;;;;;;;10.07;4.27;;;9.60;99.90;;;;;;5014815;28;20634;-71
2022/10/07 05:26:54;;;;;;;8.80;4.40;;;9.60;99.90;;;;;;4993283;28;20205;-71
2022/10/07 05:29:20;;;;;;;11.63;4.07;;;9.60;99.90;;;;;;5011115;28;20205;-72
2022/10/07 05:31:47;;;;;;;10.13;4.63;;;9.60;99.90;;;;;;5011534;28;20304;-71
2022/10/07 05:34:14;;;;;;;10.40;4.20;;;9.60;99.90;;;;;;5011452;28;20247;-71
2022/10/07 05:36:40;;;;;;;7.37;4.03;;;9.60;99.90;;;;;;5004576;28;20628;-70
2022/10/07 05:39:05;;;;;;;8.07;4.40;;;9.60;99.90;;;;;;4991910;28;20235;-71
2022/10/07 05:41:31;;;;;;;9.03;4.90;;;9.60;99.90;;;;;;5013818;28;20211;-70
2022/10/07 05:43:59;;;;;;;6.77;3.87;;;9.60;99.90;;;;;;4996691;28;20307;-71
2022/10/07 05:46:24;;;;;;;9.67;4.97;;;9.60;99.90;;;;;;5002853;28;20322;-71
2022/10/07 05:48:51;;;;;;;8.37;4.40;;;9.70;99.90;;;;;;5011583;28;20208;-69
2022/10/07 05:51:21;;;;;;;6.90;4.13;;;9.80;99.90;;;;;;5006153;28;20507;-71
2022/10/07 05:53:47;;;;;;;6.43;4.50;;;9.80;99.90;;;;;;5003624;28;20253;-71
2022/10/07 05:56:20;;;;;;;13.20;4.80;;;10.00;99.90;;;;;;5010744;28;20676;-71
2022/10/07 05:58:46;;;;;;;9.37;4.57;;;11.00;99.90;;;;;;4991025;28;20629;-70
2022/10/07 06:01:20;;;;;;;10.20;4.30;;;13.10;99.90;;;;;;5008072;28;20665;-71
2022/10/07 06:03:53;;;;;;;9.80;4.27;;;14.80;99.90;;;;;;4989735;28;20620;-71
2022/10/07 06:06:19;;;;;;;9.07;3.80;;;15.60;99.90;;;;;;5011424;28;20693;-71
2022/10/07 06:08:46;;;;;;;8.35;3.65;;;16.30;99.90;;;;;;5008696;28;20287;-71
2022/10/07 06:13:58;;;;;;;7.93;3.90;;;18.20;99.90;;;;;;5013700;28;20697;-71
2022/10/07 06:16:23;;;;;;;9.07;3.80;;;18.60;99.90;;;;;;4998985;28;20203;-71
2022/10/07 06:18:51;;;;;;;6.20;4.00;;;18.70;99.90;;;;;;4995904;28;20178;-72
2022/10/07 06:21:17;;;;;;;10.68;3.47;;;19.20;99.90;;;;;;4993379;28;20267;-72
2022/10/07 06:23:43;;;;;;;9.60;4.53;;;19.30;99.90;;;;;;5018664;28;20301;-72
2022/10/07 06:26:10;;;;;;;12.57;3.80;;;19.70;99.90;;;;;;5013483;28;20252;-72
2022/10/07 06:28:38;;;;;;;9.68;3.97;;;20.00;99.90;;;;;;5010345;28;20219;-73
2022/10/07 06:31:05;;;;;;;7.80;4.32;;;19.60;99.90;;;;;;5000488;28;20308;-72
2022/10/07 06:33:31;;;;;;;8.73;4.53;;;20.10;99.90;;;;;;5016794;28;20255;-72
2022/10/07 06:36:00;;;;;;;9.07;3.55;;;19.10;99.90;;;;;;4996544;28;20308;-72
2022/10/07 06:38:25;;;;;;;6.20;4.05;;;18.90;99.90;;;;;;5006862;28;20630;-72
2022/10/07 06:40:58;;;;;;;8.60;4.50;;;19.70;99.90;;;;;;5016408;28;20205;-72
2022/10/07 06:43:25;;;;;;;10.30;4.28;;;19.50;99.90;;;;;;5017425;28;20624;-72
2022/10/07 06:45:51;;;;;;;8.57;3.72;;;20.60;99.90;;;;;;5008463;28;20691;-72
2022/10/07 06:48:17;;;;;;;6.25;3.60;;;20.90;99.90;;;;;;5020470;28;20184;-72
2022/10/07 06:50:50;;;;;;;8.57;3.78;;;21.20;99.90;;;;;;5013952;28;20213;-72
2022/10/07 06:53:15;;;;;;;8.32;3.97;;;21.20;99.90;;;;;;4993445;28;20220;-73
2022/10/07 06:55:41;;;;;;;8.00;3.90;;;21.90;99.90;;;;;;5010235;28;20251;-73
2022/10/07 06:58:06;;;;;;;6.45;3.92;;;22.20;99.90;;;;;;5020059;28;20300;-73
2022/10/07 07:00:32;;;;;;;7.82;4.13;;;21.90;99.90;;;;;;5011756;28;20181;-74
2022/10/07 07:03:00;;;;;;;10.00;3.90;;;21.00;99.90;;;;;;5004811;28;20228;-73
2022/10/07 07:05:36;;;;;;;7.63;3.92;;;20.90;99.90;;;;;;5015192;28;20584;-72
2022/10/07 07:08:02;;;;;;;8.38;4.25;;;21.00;99.90;;;;;;5014389;28;20208;-73
2022/10/07 07:10:27;;;;;;;8.13;3.92;;;20.90;99.90;;;;;;5008243;28;20591;-73
2022/10/07 07:12:53;;;;;;;6.97;4.10;;;20.30;99.90;;;;;;5009574;28;20185;-73
2022/10/07 07:15:19;;;;;;;7.13;3.90;;;21.10;99.90;;;;;;5019895;28;20240;-74
2022/10/07 07:17:45;;;;;;;7.88;4.07;;;21.60;99.90;;;;;;4993400;28;20273;-73
2022/10/07 07:20:12;;;;;;;11.13;3.92;;;21.90;99.90;;;;;;5006894;28;20205;-73
2022/10/07 07:22:37;;;;;;;8.52;5.53;;;21.90;99.90;;;;;;5002187;28;20213;-74
2022/10/07 07:25:03;;;;;;;7.95;4.20;;;21.70;99.90;;;;;;5015542;28;20240;-73
2022/10/07 07:27:29;;;;;;;10.05;4.80;;;22.00;99.90;;;;;;5010056;28;20248;-71
2022/10/07 07:29:54;;;;;;;10.55;5.30;;;22.10;99.90;;;;;;5008790;28;20304;-71
2022/10/07 07:32:20;;;;;;;9.25;4.07;;;21.80;99.90;;;;;;5018908;28;20205;-72
2022/10/07 07:34:45;;;;;;;10.65;4.00;;;22.10;99.90;;;;;;5009969;28;20692;-71
2022/10/07 07:37:11;;;;;;;8.02;4.30;;;22.30;99.90;;;;;;4989394;28;20213;-72
2022/10/07 07:39:37;;;;;;;9.70;4.30;;;21.80;99.90;;;;;;5014604;28;20251;-72
2022/10/07 07:42:03;;;;;;;7.85;3.95;;;21.60;99.90;;;;;;5014930;28;20253;-73
2022/10/07 07:44:29;;;;;;;10.43;4.05;;;21.40;99.90;;;;;;5014932;28;20249;-71
2022/10/07 07:46:55;;;;;;;5.70;3.47;;;20.90;99.90;;;;;;4984906;28;20205;-72
2022/10/07 07:49:21;;;;;;;6.20;3.45;;;21.00;99.90;;;;;;5018811;28;20212;-72
2022/10/07 07:51:47;;;;;;;10.07;3.88;;;21.50;99.90;;;;;;5002629;28;20564;-71
2022/10/07 07:54:14;;;;;;;11.55;4.22;;;22.50;99.90;;;;;;4994082;28;20185;-71
2022/10/07 07:56:40;;;;;;;7.78;3.72;;;23.10;99.90;;;;;;5014936;28;20288;-71
2022/10/07 07:59:07;;;;;;;6.10;3.60;;;23.20;99.90;;;;;;4999677;28;20619;-70
2022/10/07 08:01:34;;;;;;;7.95;4.10;;;23.10;99.90;;;;;;5004215;28;20205;-71
2022/10/07 08:04:00;;;;;;;5.97;3.63;;;23.00;99.90;;;;;;5003029;28;20236;-71
2022/10/07 08:06:26;;;;;;;7.82;3.65;;;23.30;99.90;;;;;;5018221;28;20173;-71
2022/10/07 08:08:56;;;;;;;8.95;3.85;;;23.20;99.90;;;;;;5008834;28;20209;-73
2022/10/07 08:11:22;;;;;;;8.35;3.53;;;23.10;99.90;;;;;;5006620;28;20247;-71
2022/10/07 08:13:48;;;;;;;12.52;4.38;;;23.10;99.90;;;;;;5013945;28;20216;-71
2022/10/07 08:16:16;;;;;;;7.55;3.95;;;23.20;99.90;;;;;;5014833;28;20347;-71
2022/10/07 08:18:45;;;;;;;6.15;3.40;;;22.40;99.90;;;;;;5012215;28;20186;-71
2022/10/07 08:21:11;;;;;;;19.30;5.00;;;21.80;99.90;;;;;;5006076;28;20201;-69
2022/10/07 08:23:37;;;;;;;8.38;3.92;;;21.40;99.90;;;;;;5016443;28;20704;-71
2022/10/07 08:26:03;;;;;;;9.00;4.43;;;21.30;99.90;;;;;;4996558;28;20595;-70
2022/10/07 08:28:30;;;;;;;9.85;4.25;;;21.30;99.90;;;;;;5009148;28;20205;-71
2022/10/07 08:31:05;;;;;;;6.03;3.67;;;21.30;99.90;;;;;;4987411;28;20185;-71
2022/10/07 08:33:33;;;;;;;7.63;3.35;;;21.20;99.90;;;;;;5011068;28;20647;-72
2022/10/07 08:38:29;;;;;;;7.15;3.38;;;21.20;99.90;;;;;;5055230;22;20694;-70
2022/10/07 08:40:55;;;;;;;11.98;3.60;;;21.60;99.90;;;;;;5019028;28;20257;-70
2022/10/07 08:43:22;;;;;;;8.45;3.47;;;21.10;99.90;;;;;;5031297;28;20204;-70
2022/10/07 08:45:51;;;;;;;8.18;3.63;;;20.40;99.90;;;;;;5025588;28;20197;-70
2022/10/07 08:48:24;;;;;;;7.20;3.40;;;20.00;99.90;;;;;;5026380;28;20682;-70
2022/10/07 08:51:18;;;;;;;6.30;3.00;;;19.40;99.90;;;;;;5007484;28;20208;-70
2022/10/07 08:53:48;;;;;;;7.78;3.45;;;19.50;99.90;;;;;;5023663;28;20204;-70
2022/10/07 08:56:17;;;;;;;6.53;3.20;;;19.40;99.90;;;;;;5008157;28;20630;-70
2022/10/07 08:58:46;;;;;;;8.20;2.70;;;20.00;99.90;;;;;;5019514;28;20235;-70
2022/10/07 09:01:54;;;;;;;8.10;3.33;;;20.60;99.90;;;;;;5023959;28;20263;-70
2022/10/07 09:04:32;;;;;;;7.85;3.03;;;21.20;99.90;;;;;;5022274;28;20658;-70
2022/10/07 09:07:15;;;;;;;11.18;4.20;;;21.40;99.90;;;;;;5026361;28;20215;-70
2022/10/07 09:09:45;;;;;;;6.88;3.00;;;21.10;99.90;;;;;;5020006;28;20168;-71
2022/10/07 09:12:21;;;;;;;8.93;3.60;;;21.60;99.90;;;;;;5025724;28;20195;-70
2022/10/07 09:14:50;;;;;;;8.25;3.35;;;21.50;99.90;;;;;;5020962;28;20885;-70
2022/10/07 09:17:42;;;;;;;14.02;4.97;;;21.80;99.90;;;;;;5025141;28;20212;-70
2022/10/07 09:20:17;;;;;;;8.35;3.38;;;21.80;99.90;;;;;;5020108;28;20209;-70
2022/10/07 09:22:56;;;;;;;4.53;2.13;;;21.80;99.90;;;;;;5025475;28;20227;-70
2022/10/07 09:25:27;;;;;;;5.32;2.65;;;21.40;99.90;;;;;;5021675;28;20203;-70
2022/10/07 09:27:53;;;;;;;5.63;2.15;;;21.00;99.90;;;;;;5003437;28;20588;-70
2022/10/07 09:30:21;;;;;;;4.97;2.58;;;20.30;99.90;;;;;;5004303;28;20175;-71
2022/10/07 09:32:50;;;;;;;6.95;3.03;;;20.90;99.90;;;;;;5008888;28;20239;-71
2022/10/07 09:35:21;;;;;;;5.55;2.38;;;21.20;99.90;;;;;;5024439;28;20200;-70
2022/10/07 09:38:02;;;;;;;5.18;2.22;;;21.40;99.90;;;;;;5019831;28;20268;-70
2022/10/07 09:41:13;;;;;;;6.45;2.40;;;21.50;99.90;;;;;;5023292;28;20255;-70
2022/10/07 09:43:26;;;;;;;7.95;2.72;;;21.50;99.90;;;;;;5020581;28;20254;-70
2022/10/07 09:45:54;;;;;;;7.20;2.55;;;21.70;99.90;;;;;;5022772;28;20196;-70
2022/10/07 09:48:23;;;;;;;5.75;2.30;;;22.00;99.90;;;;;;5021699;28;20194;-70
2022/10/07 09:50:48;;;;;;;5.60;2.42;;;21.70;99.90;;;;;;5024352;28;20212;-70
2022/10/07 09:53:19;;;;;;;6.18;2.50;;;21.70;99.90;;;;;;5005597;28;20211;-70
2022/10/07 09:55:45;;;;;;;11.43;2.20;;;21.80;99.90;;;;;;5022123;28;20196;-70
2022/10/07 09:58:18;;;;;;;4.88;2.38;;;21.50;99.90;;;;;;5024831;28;20867;-70
2022/10/07 10:00:49;;;;;;;6.70;2.38;;;21.50;99.90;;;;;;5005541;28;20176;-69
2022/10/07 10:03:16;;;;;;;10.55;2.50;;;21.50;99.90;;;;;;5022657;28;20180;-70
2022/10/07 10:05:57;;;;;;;5.68;2.47;;;21.10;99.90;;;;;;5024600;28;20216;-70
2022/10/07 10:08:34;;;;;;;5.40;2.30;;;21.00;99.90;;;;;;5003844;28;20858;-70
2022/10/07 10:11:02;;;;;;;8.02;2.60;;;21.10;99.90;;;;;;4999877;28;20212;-70
2022/10/07 10:13:37;;;;;;;6.45;2.03;;;21.30;99.90;;;;;;5024923;28;20227;-70
2022/10/07 10:16:05;;;;;;;5.00;2.35;;;20.80;99.90;;;;;;5025044;28;20205;-70
2022/10/07 10:18:36;;;;;;;5.68;2.58;;;21.00;99.90;;;;;;5024376;28;20172;-70
2022/10/07 10:21:41;;;;;;;8.88;2.35;;;20.90;99.90;;;;;;5019391;28;20649;-70
2022/10/07 10:27:21;;;;;;;6.57;2.35;;;21.10;99.90;;;;;;5023027;28;20219;-71
2022/10/07 10:30:10;;;;;;;3.33;1.83;;;20.60;99.90;;;;;;5019182;28;20213;-70
2022/10/07 10:33:04;;;;;;;5.03;2.13;;;20.90;99.90;;;;;;5026255;28;20205;-70
2022/10/07 10:35:57;;;;;;;8.23;2.47;;;20.30;99.90;;;;;;5023651;28;20208;-70
2022/10/07 10:38:32;;;;;;;4.90;1.90;;;20.70;99.90;;;;;;4999622;28;20223;-70
2022/10/07 10:41:15;;;;;;;6.30;2.20;;;20.80;99.90;;;;;;5025724;28;20268;-70
2022/10/07 10:44:08;;;;;;;4.38;1.80;;;20.70;99.90;;;;;;5019519;28;20227;-70
2022/10/07 10:47:00;;;;;;;5.93;2.00;;;20.60;99.90;;;;;;5019296;28;20255;-70
2022/10/07 10:50:09;;;;;;;7.03;1.80;;;20.80;99.90;;;;;;5021153;28;20213;-69
2022/10/07 10:52:44;;;;;;;4.93;1.90;;;20.70;99.90;;;;;;4968171;28;20742;-70
2022/10/07 10:55:32;;;;;;;6.03;2.00;;;20.90;99.90;;;;;;5020237;28;20222;-70
2022/10/07 10:58:23;;;;;;;4.57;1.85;;;20.60;99.90;;;;;;5020379;28;20216;-70
2022/10/07 11:01:17;;;;;;;4.60;2.33;;;20.60;99.90;;;;;;5020943;28;20231;-70
2022/10/07 11:04:06;;;;;;;9.70;1.92;;;20.60;99.90;;;;;;5023259;28;20180;-71
2022/10/07 11:06:35;;;;;;;8.55;2.47;;;20.60;99.90;;;;;;5028203;28;20670;-70
2022/10/07 11:09:02;;;;;;;4.60;2.20;;;20.80;99.90;;;;;;5008653;28;20217;-70
2022/10/07 11:11:28;;;;;;;4.80;2.10;;;20.60;99.90;;;;;;5020548;28;20255;-70
2022/10/07 11:14:09;;;;;;;4.80;2.17;;;20.40;99.90;;;;;;5006721;28;20617;-70
2022/10/07 11:16:52;;;;;;;8.82;2.58;;;20.40;99.90;;;;;;5029178;28;20213;-70
2022/10/07 11:19:34;;;;;;;5.00;2.28;;;20.50;99.90;;;;;;5023021;28;20208;-70
2022/10/07 11:22:01;;;;;;;6.40;2.10;;;20.60;99.90;;;;;;5023021;28;20204;-70
2022/10/07 11:24:32;;;;;;;5.68;2.05;;;20.70;99.90;;;;;;5030015;28;20204;-71
2022/10/07 11:27:19;;;;;;;3.80;2.17;;;20.70;99.90;;;;;;5024159;28;20216;-70
2022/10/07 11:29:57;;;;;;;8.00;2.33;;;20.60;99.90;;;;;;5019397;28;20697;-69
2022/10/07 11:32:31;;;;;;;4.65;2.00;;;20.50;99.90;;;;;;5024618;28;20219;-70
2022/10/07 11:35:22;;;;;;;3.67;1.70;;;20.50;99.90;;;;;;5007486;28;20205;-70
2022/10/07 11:38:11;;;;;;;8.15;2.30;;;20.30;99.90;;;;;;5001415;28;20221;-70
2022/10/07 11:40:55;;;;;;;8.27;4.22;;;20.30;99.90;;;;;;5010122;28;20242;-70
2022/10/07 11:43:20;;;;;;;5.05;1.98;;;20.30;99.90;;;;;;5023402;28;20212;-70
2022/10/07 11:45:51;;;;;;;5.30;1.80;;;20.30;99.90;;;;;;5007855;28;20204;-70
2022/10/07 11:48:37;;;;;;;5.10;1.85;;;20.10;99.90;;;;;;5009407;28;20546;-70
2022/10/07 11:51:05;;;;;;;5.78;1.70;;;20.10;99.90;;;;;;5028578;28;20582;-70
2022/10/07 11:53:36;;;;;;;8.27;2.05;;;20.20;99.90;;;;;;5020539;28;20208;-70
2022/10/07 11:56:24;;;;;;;5.25;2.00;;;20.10;99.90;;;;;;5024873;28;20643;-70
2022/10/07 11:59:01;;;;;;;6.43;1.88;;;20.00;99.90;;;;;;5021283;28;20205;-70
2022/10/07 12:01:29;;;;;;;6.43;2.13;;;20.10;99.90;;;;;;5024813;28;20204;-70
2022/10/07 12:04:20;;;;;;;4.30;1.73;;;20.30;99.90;;;;;;5017729;28;20191;-70
2022/10/07 12:07:23;;;;;;;4.45;2.00;;;20.30;99.90;;;;;;5021858;28;20274;-69
2022/10/07 12:10:20;;;;;;;4.85;1.67;;;20.30;99.90;;;;;;5022604;28;20176;-70
2022/10/07 12:12:53;;;;;;;6.53;2.05;;;20.10;99.90;;;;;;4998411;28;20185;-70
2022/10/07 12:15:26;;;;;;;4.68;2.03;;;19.80;99.90;;;;;;5023163;28;20165;-71
2022/10/07 12:17:54;;;;;;;5.88;2.10;;;19.90;99.90;;;;;;5024473;28;20238;-70
2022/10/07 12:20:54;;;;;;;4.22;1.88;;;19.80;99.90;;;;;;5021469;28;20208;-70
2022/10/07 12:23:24;;;;;;;4.00;1.40;;;19.90;99.90;;;;;;5019396;28;20208;-71
2022/10/07 12:25:50;;;;;;;4.70;2.40;;;19.90;99.90;;;;;;5008184;28;20691;-70
2022/10/07 12:28:22;;;;;;;4.40;1.90;;;19.70;99.90;;;;;;5024950;28;20215;-70
2022/10/07 12:30:56;;;;;;;5.95;2.10;;;19.90;99.90;;;;;;5023507;28;20177;-70
2022/10/07 12:33:36;;;;;;;5.07;2.38;;;19.90;99.90;;;;;;5028999;28;20171;-70
2022/10/07 12:36:20;;;;;;;7.60;1.77;;;19.90;99.90;;;;;;5021367;28;20587;-70
2022/10/07 12:39:08;;;;;;;2.72;1.75;;;19.80;99.90;;;;;;5006075;28;20295;-70
2022/10/07 12:41:34;;;;;;;5.00;2.17;;;19.80;99.90;;;;;;5026256;28;20228;-70
2022/10/07 12:44:25;;;;;;;4.25;1.70;;;19.80;99.90;;;;;;5006247;28;20205;-70
2022/10/07 12:47:08;;;;;;;5.65;2.40;;;19.40;99.90;;;;;;4986761;28;20606;-70
2022/10/07 12:49:41;;;;;;;5.68;2.70;;;19.30;99.90;;;;;;5023348;28;20212;-70
2022/10/07 12:52:29;;;;;;;5.63;1.88;;;19.10;99.90;;;;;;5023323;28;20259;-70
2022/10/07 12:55:01;;;;;;;5.20;2.17;;;19.10;99.90;;;;;;5020470;28;20181;-70
2022/10/07 12:57:33;;;;;;;5.15;2.38;;;18.90;99.90;;;;;;5029736;28;20192;-70
2022/10/07 13:00:06;;;;;;;7.78;2.53;;;18.70;99.90;;;;;;4997571;28;20208;-70
2022/10/07 13:02:59;;;;;;;6.57;1.75;;;18.70;99.90;;;;;;5019527;28;20567;-70
2022/10/07 13:05:31;;;;;;;5.28;2.05;;;18.70;99.90;;;;;;5022117;28;20802;-70
2022/10/07 13:08:18;;;;;;;6.82;2.40;;;18.80;99.90;;;;;;5025632;28;20207;-71
2022/10/07 13:10:59;;;;;;;4.45;2.10;;;18.80;99.90;;;;;;5020570;28;20304;-70
2022/10/07 13:13:28;;;;;;;6.55;2.47;;;18.80;99.90;;;;;;5019731;28;20591;-70
2022/10/07 13:16:16;;;;;;;5.45;2.25;;;18.80;99.90;;;;;;5026014;28;20686;-70
2022/10/07 13:18:58;;;;;;;6.15;2.30;;;18.60;99.90;;;;;;5020605;28;20580;-70
2022/10/07 13:21:29;;;;;;;5.20;2.38;;;18.80;99.90;;;;;;5004993;28;20183;-70
2022/10/07 13:23:55;;;;;;;6.68;2.08;;;18.60;99.90;;;;;;5026488;28;20212;-70